Time;durP1;ratioP1;P1;durP2;ratioP2;P2;SDS_P1;SDS_P2;PMS_P1;PMS_P2;Temp;Humidity;BMP_temperature;BMP_pressure;BME280_temperature;BME280_humidity;BME280_pressure;Samples;Min_cycle;Max_cycle;Signal;HPM_P1;HPM_P2
2023/03/29 00:00:12;;;;;;;17.77;11.48;;;;;;;7.79;75.20;101575.25;5033333;28;20474;-47
2023/03/29 00:02:38;;;;;;;17.02;11.50;;;;;;;7.76;75.54;101562.00;5051556;28;20108;-47
2023/03/29 00:05:03;;;;;;;17.35;11.30;;;;;;;7.69;75.58;101577.97;5051070;28;20108;-47
2023/03/29 00:07:32;;;;;;;18.00;11.20;;;;;;;7.67;75.41;101575.47;5051228;28;20402;-45
2023/03/29 00:09:57;;;;;;;18.67;11.40;;;;;;;7.60;75.80;101564.72;5051385;28;20832;-43
2023/03/29 00:12:23;;;;;;;18.27;11.20;;;;;;;7.59;76.22;101564.97;5053257;28;20111;-46
2023/03/29 00:14:48;;;;;;;17.55;11.60;;;;;;;7.60;75.74;101553.69;5054872;28;20029;-44
2023/03/29 00:17:14;;;;;;;17.38;11.50;;;;;;;7.63;75.67;101550.41;5055206;28;20086;-43
2023/03/29 00:19:42;;;;;;;17.23;11.60;;;;;;;7.66;75.99;101549.03;5032997;28;20025;-48
2023/03/29 00:22:07;;;;;;;17.05;11.52;;;;;;;7.73;75.89;101555.13;5054747;28;20471;-46
2023/03/29 00:24:33;;;;;;;17.52;11.48;;;;;;;7.73;75.99;101549.59;5054957;28;20108;-45
2023/03/29 00:26:58;;;;;;;17.48;11.68;;;;;;;7.78;75.40;101555.16;5054727;28;20033;-49
2023/03/29 00:29:23;;;;;;;17.85;11.43;;;;;;;7.78;75.68;101554.31;5054780;28;20388;-46
2023/03/29 00:31:52;;;;;;;17.73;11.23;;;;;;;7.77;75.79;101542.47;5054863;28;20021;-46
2023/03/29 00:34:19;;;;;;;17.70;11.45;;;;;;;7.78;76.13;101546.03;5054577;28;20155;-42
2023/03/29 00:36:45;;;;;;;17.63;11.30;;;;;;;7.76;75.58;101535.31;5054865;28;20025;-45
2023/03/29 00:39:10;;;;;;;18.33;12.20;;;;;;;7.71;76.12;101528.94;5054711;28;20036;-42
2023/03/29 00:41:35;;;;;;;17.85;11.30;;;;;;;7.55;76.23;101512.38;5054891;28;20075;-45
2023/03/29 00:44:03;;;;;;;18.35;11.68;;;;;;;7.62;75.59;101550.66;5054584;28;20462;-43
2023/03/29 00:46:29;;;;;;;17.05;11.65;;;;;;;7.59;75.70;101530.00;5054493;28;20072;-42
2023/03/29 00:49:06;;;;;;;17.65;11.38;;;;;;;7.64;76.05;101534.69;5054698;28;20033;-46
2023/03/29 00:51:35;;;;;;;18.23;12.00;;;;;;;7.67;75.46;101527.81;5054420;28;20490;-47
2023/03/29 00:54:03;;;;;;;18.45;11.88;;;;;;;7.69;75.93;101520.97;5054352;28;20497;-43
2023/03/29 00:56:35;;;;;;;17.38;11.38;;;;;;;7.63;75.67;101517.38;5054444;28;20028;-44
2023/03/29 00:59:16;;;;;;;17.20;11.35;;;;;;;7.74;75.51;101518.22;5055040;28;20037;-44
2023/03/29 01:01:52;;;;;;;16.40;11.10;;;;;;;7.78;75.41;101518.50;5054445;28;20612;-45
2023/03/29 01:04:35;;;;;;;17.23;11.35;;;;;;;7.80;76.12;101510.81;5054591;28;20108;-44
2023/03/29 01:07:03;;;;;;;18.38;11.85;;;;;;;7.84;75.47;101508.31;5054705;28;20037;-44
2023/03/29 01:09:32;;;;;;;17.85;11.75;;;;;;;7.85;75.35;101509.97;5054477;28;20029;-46
2023/03/29 01:12:01;;;;;;;18.15;11.57;;;;;;;7.81;75.46;101505.00;5054268;28;20385;-44
2023/03/29 01:14:51;;;;;;;17.15;11.25;;;;;;;7.91;74.98;101509.72;5054174;28;20047;-45
2023/03/29 01:17:20;;;;;;;18.10;11.60;;;;;;;7.88;75.06;101513.03;5051778;28;20490;-43
2023/03/29 01:19:52;;;;;;;17.27;11.27;;;;;;;7.83;74.88;101504.75;5054365;28;20029;-44
2023/03/29 01:22:37;;;;;;;18.55;11.20;;;;;;;7.84;75.20;101505.56;5053777;28;20060;-45
2023/03/29 01:25:18;;;;;;;17.45;11.40;;;;;;;7.80;75.71;101499.78;5054281;28;20412;-44
2023/03/29 01:27:53;;;;;;;17.20;11.32;;;;;;;7.79;75.12;101496.19;5054091;28;20390;-43
2023/03/29 01:30:44;;;;;;;15.50;10.63;;;;;;;7.84;75.86;101497.31;5054397;28;20021;-43
2023/03/29 01:33:22;;;;;;;18.23;11.13;;;;;;;7.76;75.89;101491.25;5054007;28;20433;-44
2023/03/29 01:35:56;;;;;;;18.60;11.00;;;;;;;7.65;76.13;101467.50;5053869;28;20029;-48
2023/03/29 01:38:27;;;;;;;18.52;11.43;;;;;;;7.73;76.88;101480.75;5054284;28;20058;-49
2023/03/29 01:40:52;;;;;;;18.95;12.55;;;;;;;7.76;77.14;101473.88;5053933;28;20025;-45
2023/03/29 01:43:35;;;;;;;17.67;11.75;;;;;;;7.81;77.57;101465.63;5053670;28;20118;-46
2023/03/29 01:46:10;;;;;;;19.35;11.77;;;;;;;7.75;77.76;101463.94;5053854;28;20028;-46
2023/03/29 01:48:49;;;;;;;17.25;11.68;;;;;;;7.74;77.80;101470.59;5054065;28;20035;-48
2023/03/29 01:51:22;;;;;;;18.02;11.60;;;;;;;7.67;78.69;101458.97;5053996;28;20021;-45
2023/03/29 01:54:08;;;;;;;17.73;11.23;;;;;;;7.74;78.49;101470.59;5053816;28;20025;-44
2023/03/29 01:56:38;;;;;;;17.60;11.40;;;;;;;7.70;79.54;101458.44;5053725;28;20112;-46
2023/03/29 01:59:08;;;;;;;17.63;11.52;;;;;;;7.71;80.16;101455.41;5053745;28;20044;-45
2023/03/29 02:01:39;;;;;;;18.00;11.90;;;;;;;7.65;79.65;101451.81;5053602;28;20112;-47
2023/03/29 02:04:10;;;;;;;20.13;11.73;;;;;;;7.64;79.83;101452.94;5053697;28;20037;-43
2023/03/29 02:06:36;;;;;;;17.17;11.18;;;;;;;7.58;80.03;101462.25;5035500;28;20021;-47
2023/03/29 02:09:03;;;;;;;17.38;11.52;;;;;;;7.55;80.67;101453.72;5053533;28;20021;-46
2023/03/29 02:11:29;;;;;;;17.27;11.77;;;;;;;7.56;80.85;101450.69;5053518;28;20136;-44
2023/03/29 02:13:58;;;;;;;18.63;11.55;;;;;;;7.56;80.83;101447.91;5053288;28;20048;-47
2023/03/29 02:16:23;;;;;;;19.77;11.93;;;;;;;7.58;80.80;101442.16;5053213;28;20032;-46
2023/03/29 02:18:51;;;;;;;18.92;11.70;;;;;;;7.60;81.22;101449.06;5049525;28;20025;-45
2023/03/29 02:21:26;;;;;;;19.05;12.15;;;;;;;7.57;81.15;101435.81;5052930;28;20029;-48
2023/03/29 02:23:55;;;;;;;17.77;11.38;;;;;;;7.51;81.63;101428.66;5052958;28;20156;-46
2023/03/29 02:26:22;;;;;;;18.80;12.27;;;;;;;7.60;82.63;101435.28;5053078;28;20029;-47
2023/03/29 02:28:48;;;;;;;17.95;11.55;;;;;;;7.66;83.05;101427.88;5053111;28;20033;-49
2023/03/29 02:31:17;;;;;;;17.52;11.27;;;;;;;7.71;82.89;101427.03;5053062;28;20037;-45
2023/03/29 02:33:55;;;;;;;17.23;11.25;;;;;;;7.73;82.63;101413.84;5052534;28;20025;-48
2023/03/29 02:36:39;;;;;;;18.73;11.65;;;;;;;7.78;82.59;101430.34;5052288;28;20112;-46
2023/03/29 02:39:07;;;;;;;17.77;11.98;;;;;;;7.67;82.06;101398.38;5052447;28;20044;-46
2023/03/29 02:41:33;;;;;;;19.13;11.70;;;;;;;7.81;82.36;101411.34;5034774;28;20478;-46
2023/03/29 02:44:00;;;;;;;18.10;11.48;;;;;;;7.83;82.13;101404.75;5052535;28;20036;-48
2023/03/29 02:46:26;;;;;;;16.55;11.35;;;;;;;7.86;81.94;101404.22;5052598;28;20036;-46
2023/03/29 02:48:53;;;;;;;19.17;11.90;;;;;;;7.83;82.28;101394.56;5052362;28;20024;-47
2023/03/29 02:51:27;;;;;;;18.02;11.60;;;;;;;7.89;82.26;101401.72;5052470;28;20068;-46
2023/03/29 02:54:02;;;;;;;19.15;12.02;;;;;;;7.91;82.01;101393.19;5052073;28;20057;-46
2023/03/29 02:56:27;;;;;;;21.20;12.10;;;;;;;7.90;81.78;101391.53;5052150;28;20094;-45
2023/03/29 02:58:53;;;;;;;19.42;11.73;;;;;;;7.88;81.88;101388.25;5034559;28;20104;-47
2023/03/29 03:01:19;;;;;;;18.40;12.10;;;;;;;7.88;81.71;101396.50;5051812;28;20021;-48
2023/03/29 03:03:45;;;;;;;18.27;11.52;;;;;;;7.85;81.03;101386.84;5052331;28;20029;-45
2023/03/29 03:06:11;;;;;;;18.00;11.48;;;;;;;7.84;81.18;101384.38;5052077;28;20028;-46
2023/03/29 03:08:37;;;;;;;19.08;12.05;;;;;;;7.85;80.97;101392.34;5052202;28;20029;-47
2023/03/29 03:11:02;;;;;;;18.58;11.80;;;;;;;7.80;80.96;101382.16;5051956;28;20684;-49
2023/03/29 03:13:27;;;;;;;20.40;11.70;;;;;;;7.83;80.96;101380.81;5051833;28;20033;-45
2023/03/29 03:15:52;;;;;;;16.70;10.95;;;;;;;7.86;80.86;101374.72;5051868;28;20028;-47
2023/03/29 03:18:18;;;;;;;17.83;11.18;;;;;;;7.89;80.71;101370.59;5034021;28;20037;-44
2023/03/29 03:20:53;;;;;;;17.52;11.25;;;;;;;7.93;80.70;101372.53;5048218;28;20029;-47
2023/03/29 03:23:18;;;;;;;16.58;10.90;;;;;;;7.94;80.51;101376.09;5051600;28;20533;-48
2023/03/29 03:25:43;;;;;;;17.92;11.20;;;;;;;8.01;80.16;101371.16;5051759;28;20029;-48
2023/03/29 03:28:09;;;;;;;18.38;11.20;;;;;;;7.97;80.52;101357.09;5051758;28;20021;-45
2023/03/29 03:30:34;;;;;;;18.02;11.48;;;;;;;8.06;79.68;101373.06;5051768;28;20028;-47
2023/03/29 03:32:59;;;;;;;17.42;11.48;;;;;;;8.02;79.26;101361.78;5051595;28;20075;-44
2023/03/29 03:35:25;;;;;;;17.42;11.02;;;;;;;8.10;79.36;101366.72;5051667;28;20386;-45
2023/03/29 03:37:50;;;;;;;17.95;11.23;;;;;;;8.13;79.24;101376.38;5051728;28;20029;-45
2023/03/29 03:40:16;;;;;;;18.13;11.63;;;;;;;8.13;78.91;101362.59;5051678;28;20029;-45
2023/03/29 03:42:41;;;;;;;17.35;11.45;;;;;;;8.11;78.56;101359.31;5050951;28;20040;-46
2023/03/29 03:45:07;;;;;;;18.63;11.35;;;;;;;8.16;79.07;101364.00;5050969;28;20115;-46
2023/03/29 03:47:34;;;;;;;16.98;11.02;;;;;;;8.14;78.75;101363.44;5055350;28;20363;-45
2023/03/29 03:49:59;;;;;;;17.58;11.20;;;;;;;8.07;78.08;101370.06;5055476;28;20017;-44
2023/03/29 03:52:25;;;;;;;17.45;11.15;;;;;;;8.06;78.56;101364.81;5055468;28;20036;-47
2023/03/29 03:54:50;;;;;;;18.50;11.52;;;;;;;8.05;77.90;101357.63;5055533;28;20083;-48
2023/03/29 03:57:16;;;;;;;19.00;11.40;;;;;;;8.03;77.30;101366.19;5055426;28;20030;-49
2023/03/29 03:59:41;;;;;;;17.08;10.77;;;;;;;8.02;77.39;101371.97;5055255;28;20029;-50
2023/03/29 04:02:07;;;;;;;18.67;11.40;;;;;;;8.01;76.93;101365.63;5055324;28;20112;-48
2023/03/29 04:04:32;;;;;;;18.15;11.27;;;;;;;8.04;77.85;101370.59;5055316;28;20108;-47
2023/03/29 04:07:01;;;;;;;17.38;11.30;;;;;;;8.09;76.73;101367.00;5055316;28;20021;-45
2023/03/29 04:09:31;;;;;;;16.88;11.20;;;;;;;8.09;77.24;101361.50;5055204;28;20516;-46
2023/03/29 04:11:57;;;;;;;17.88;11.80;;;;;;;8.10;75.87;101361.22;5054898;28;20029;-46
2023/03/29 04:14:22;;;;;;;16.92;11.27;;;;;;;8.16;76.52;101361.22;5055032;28;20025;-45
2023/03/29 04:16:48;;;;;;;16.10;11.30;;;;;;;8.18;76.13;101356.25;5037161;28;20027;-45
2023/03/29 04:19:13;;;;;;;18.40;11.50;;;;;;;8.22;76.36;101346.31;5052610;28;20184;-47
2023/03/29 04:21:39;;;;;;;18.75;11.82;;;;;;;8.26;76.04;101347.44;5053681;28;20473;-49
2023/03/29 04:24:04;;;;;;;18.13;11.70;;;;;;;8.26;75.30;101339.97;5054620;28;20136;-46
2023/03/29 04:26:30;;;;;;;16.50;11.13;;;;;;;8.25;75.65;101349.34;5054763;28;20017;-49
2023/03/29 04:28:55;;;;;;;18.27;11.52;;;;;;;8.25;75.45;101343.03;5054698;28;20108;-47
2023/03/29 04:31:21;;;;;;;17.08;10.95;;;;;;;8.27;75.83;101349.91;5055003;28;20025;-46
2023/03/29 04:33:46;;;;;;;17.63;11.18;;;;;;;8.29;75.91;101349.63;5054831;28;20454;-50
2023/03/29 04:36:14;;;;;;;18.40;10.93;;;;;;;8.28;76.05;101345.22;5054602;28;20078;-48
2023/03/29 04:38:40;;;;;;;17.05;11.18;;;;;;;8.30;75.96;101343.00;5054682;28;20023;-46
2023/03/29 04:41:08;;;;;;;18.50;11.38;;;;;;;8.31;76.21;101344.66;5054467;28;20025;-50
2023/03/29 04:43:34;;;;;;;18.23;11.45;;;;;;;8.32;76.05;101338.03;5054606;28;20394;-49
2023/03/29 04:46:00;;;;;;;16.80;11.43;;;;;;;8.34;75.79;101341.34;5054458;28;20036;-46
2023/03/29 04:48:29;;;;;;;19.05;11.63;;;;;;;8.35;76.13;101336.66;5054427;28;20430;-44
2023/03/29 04:50:54;;;;;;;16.45;11.20;;;;;;;8.37;75.63;101338.03;5036493;28;20108;-46
2023/03/29 04:53:21;;;;;;;18.63;11.25;;;;;;;8.38;75.32;101330.59;5054400;28;20021;-48
2023/03/29 04:55:46;;;;;;;18.20;11.20;;;;;;;8.42;75.71;101335.25;5054373;28;20068;-51
2023/03/29 04:58:12;;;;;;;17.27;11.30;;;;;;;8.44;75.37;101332.22;5053540;28;20422;-47
2023/03/29 05:00:38;;;;;;;17.40;11.52;;;;;;;8.46;75.87;101335.53;5053919;28;20035;-44
2023/03/29 05:03:03;;;;;;;19.35;11.90;;;;;;;8.46;75.69;101330.03;5053591;28;20025;-46
2023/03/29 05:05:29;;;;;;;17.67;11.75;;;;;;;8.47;75.87;101322.56;5053273;28;20081;-47
2023/03/29 05:07:54;;;;;;;18.60;11.60;;;;;;;8.46;75.69;101319.00;5052945;28;20102;-44
2023/03/29 05:10:20;;;;;;;18.50;11.48;;;;;;;8.45;75.79;101319.28;5052937;28;20474;-46
2023/03/29 05:12:45;;;;;;;17.98;11.77;;;;;;;8.47;75.50;101323.44;5052936;28;20032;-44
2023/03/29 05:15:11;;;;;;;17.48;11.50;;;;;;;8.47;75.27;101311.53;5049329;28;20025;-44
2023/03/29 05:17:36;;;;;;;19.23;11.52;;;;;;;8.47;75.16;101322.56;5052564;28;20090;-43
2023/03/29 05:20:08;;;;;;;17.65;11.70;;;;;;;8.48;75.01;101313.22;5052580;28;20033;-43
2023/03/29 05:22:35;;;;;;;17.33;11.32;;;;;;;8.50;74.90;101319.28;5052452;28;20120;-45
2023/03/29 05:25:00;;;;;;;17.10;11.40;;;;;;;8.50;74.92;101320.09;5052346;28;20040;-47
2023/03/29 05:27:26;;;;;;;17.55;11.60;;;;;;;8.50;75.53;101331.13;5052265;28;20033;-49
2023/03/29 05:29:51;;;;;;;17.90;11.63;;;;;;;8.49;75.36;101328.66;5052036;28;20499;-46
2023/03/29 05:32:17;;;;;;;17.73;11.48;;;;;;;8.51;75.45;101335.53;5052042;28;20120;-48
2023/03/29 05:34:42;;;;;;;19.02;11.82;;;;;;;8.51;75.50;101338.28;5051775;28;20036;-46
2023/03/29 05:37:07;;;;;;;18.38;11.63;;;;;;;8.53;75.43;101338.84;5051735;28;20025;-47
2023/03/29 05:39:33;;;;;;;18.58;11.77;;;;;;;8.56;75.49;101335.53;5051586;28;20017;-46
2023/03/29 05:41:59;;;;;;;17.95;11.45;;;;;;;8.54;75.53;101328.66;5051821;28;20025;-47
2023/03/29 05:44:25;;;;;;;17.25;10.95;;;;;;;8.53;75.42;101324.25;5053129;28;20094;-45
2023/03/29 05:46:50;;;;;;;18.52;11.90;;;;;;;8.51;75.44;101332.78;5053018;28;20032;-47
2023/03/29 05:49:16;;;;;;;17.80;11.18;;;;;;;8.52;75.66;101328.09;5053214;28;20075;-47
2023/03/29 05:51:41;;;;;;;18.30;11.68;;;;;;;8.54;75.51;101331.41;5044753;28;20117;-49
2023/03/29 05:54:07;;;;;;;18.13;11.25;;;;;;;8.52;75.36;101339.13;5033113;28;20034;-46
2023/03/29 05:56:32;;;;;;;20.10;11.55;;;;;;;8.54;75.93;101336.94;5033309;28;20025;-46
2023/03/29 05:58:57;;;;;;;17.90;12.10;;;;;;;8.62;76.04;101338.25;5033186;28;20029;-49
2023/03/29 06:01:23;;;;;;;18.92;11.20;;;;;;;8.70;76.60;101352.31;5033237;28;20116;-47
2023/03/29 06:03:52;;;;;;;17.63;11.30;;;;;;;8.73;75.57;101350.91;5033146;28;20033;-48
2023/03/29 06:06:17;;;;;;;20.35;11.70;;;;;;;8.78;76.22;101342.66;5033221;28;20034;-46
2023/03/29 06:08:44;;;;;;;18.67;11.50;;;;;;;8.84;75.79;101341.50;5033060;28;20041;-46
2023/03/29 06:11:11;;;;;;;19.83;11.60;;;;;;;8.87;75.76;101338.19;5033111;28;20082;-46
2023/03/29 06:13:37;;;;;;;19.38;12.13;;;;;;;8.92;75.40;101344.78;5032941;28;20037;-47
2023/03/29 06:16:04;;;;;;;19.73;11.55;;;;;;;8.92;75.23;101339.25;5014038;28;20734;-47
2023/03/29 06:18:32;;;;;;;19.77;11.45;;;;;;;8.95;75.30;101333.19;5028792;28;20040;-45
2023/03/29 06:20:58;;;;;;;19.35;11.80;;;;;;;8.88;75.43;101330.72;5030532;28;20531;-45
2023/03/29 06:23:23;;;;;;;21.63;11.38;;;;;;;8.96;75.41;101341.16;5030149;28;20172;-46
2023/03/29 06:25:50;;;;;;;19.23;11.45;;;;;;;9.00;75.78;101344.19;5030772;28;20053;-48
2023/03/29 06:28:16;;;;;;;18.92;11.73;;;;;;;8.99;75.59;101348.06;5030803;28;20025;-47
2023/03/29 06:30:44;;;;;;;19.90;11.88;;;;;;;9.03;75.17;101344.44;5031796;28;20155;-45
2023/03/29 06:33:10;;;;;;;20.10;11.32;;;;;;;9.13;75.46;101348.25;5032346;28;20037;-45
2023/03/29 06:35:35;;;;;;;22.05;11.60;;;;;;;9.16;75.13;101340.22;5014817;28;20033;-49
2023/03/29 06:38:02;;;;;;;19.45;11.23;;;;;;;9.23;75.58;101339.13;5014650;28;20378;-48
2023/03/29 06:40:28;;;;;;;18.70;11.15;;;;;;;9.24;74.98;101340.75;5034690;28;20106;-48
2023/03/29 06:42:56;;;;;;;18.65;11.55;;;;;;;9.24;75.50;101335.25;5051017;28;20091;-45
2023/03/29 06:45:26;;;;;;;19.40;12.13;;;;;;;9.26;75.66;101333.03;5051083;28;20025;-44
2023/03/29 06:47:52;;;;;;;19.95;11.57;;;;;;;9.26;75.64;101338.56;5050685;28;20025;-45
2023/03/29 06:50:18;;;;;;;18.63;11.20;;;;;;;9.28;75.62;101337.16;5050787;28;20043;-44
2023/03/29 06:52:44;;;;;;;19.65;11.60;;;;;;;9.27;76.07;101338.25;5050868;28;20466;-44
2023/03/29 06:55:10;;;;;;;19.73;11.75;;;;;;;9.30;76.14;101336.84;5050751;28;20080;-44
2023/03/29 06:57:37;;;;;;;19.92;11.52;;;;;;;9.30;76.03;101339.63;5050627;28;20025;-44
2023/03/29 07:00:17;;;;;;;20.77;11.70;;;;;;;9.32;76.21;101340.16;5032689;28;20039;-44
2023/03/29 07:02:46;;;;;;;18.92;11.43;;;;;;;9.32;76.98;101337.41;5050416;28;20390;-47
2023/03/29 07:05:13;;;;;;;19.20;11.05;;;;;;;9.34;76.60;101343.47;5050656;28;20040;-48
2023/03/29 07:07:53;;;;;;;20.77;12.20;;;;;;;9.36;76.36;101343.97;5050868;28;20074;-47
2023/03/29 07:10:20;;;;;;;18.70;11.82;;;;;;;9.35;76.84;101339.59;5050996;28;20025;-45
2023/03/29 07:12:50;;;;;;;19.38;11.18;;;;;;;9.39;76.75;101340.66;5049776;28;20032;-46
2023/03/29 07:15:16;;;;;;;19.63;11.27;;;;;;;9.42;76.50;101353.06;5032587;28;20043;-45
2023/03/29 07:17:41;;;;;;;20.50;11.25;;;;;;;9.44;76.94;101353.59;5050632;28;20029;-46
2023/03/29 07:20:11;;;;;;;20.05;12.00;;;;;;;9.47;76.68;101351.09;5050292;28;20033;-46
2023/03/29 07:22:37;;;;;;;19.13;11.48;;;;;;;9.54;77.05;101355.50;5050415;28;20064;-43
2023/03/29 07:25:02;;;;;;;20.50;11.90;;;;;;;9.56;76.93;101353.25;5050474;28;20098;-44
2023/03/29 07:27:28;;;;;;;20.45;11.90;;;;;;;9.57;77.32;101344.69;5050542;28;20494;-45
2023/03/29 07:29:53;;;;;;;19.38;11.85;;;;;;;9.60;76.82;101352.38;5050305;28;20443;-44
2023/03/29 07:32:18;;;;;;;18.23;11.50;;;;;;;9.62;76.70;101354.88;5050333;28;20029;-46
2023/03/29 07:34:45;;;;;;;19.17;11.98;;;;;;;9.67;77.06;101363.13;5050473;28;20021;-43
2023/03/29 07:37:10;;;;;;;19.48;11.63;;;;;;;9.67;77.44;101369.50;5050719;28;20108;-45
2023/03/29 07:39:36;;;;;;;20.63;11.85;;;;;;;9.68;76.95;101370.31;5050085;28;20103;-47
2023/03/29 07:42:01;;;;;;;19.88;11.88;;;;;;;9.71;77.08;101366.13;5050104;28;20070;-43
2023/03/29 07:44:28;;;;;;;21.85;11.93;;;;;;;9.71;77.19;101374.41;5050153;28;20029;-45
2023/03/29 07:46:53;;;;;;;19.80;12.15;;;;;;;9.69;77.82;101385.75;5031993;28;20120;-45
2023/03/29 07:49:19;;;;;;;19.00;12.00;;;;;;;9.72;78.01;101378.84;5043310;28;20763;-49
2023/03/29 07:51:44;;;;;;;19.50;12.10;;;;;;;9.76;77.10;101393.75;5040746;28;20029;-45
2023/03/29 07:54:09;;;;;;;19.95;12.35;;;;;;;9.76;77.09;101385.44;5043331;28;20108;-44
2023/03/29 07:56:35;;;;;;;20.05;12.00;;;;;;;9.76;77.83;101379.94;5050030;28;20053;-44
2023/03/29 07:59:00;;;;;;;20.08;11.85;;;;;;;9.76;77.80;101380.72;5049928;28;20454;-47
2023/03/29 08:01:26;;;;;;;19.52;12.32;;;;;;;9.79;77.89;101382.09;5049876;28;20079;-45
2023/03/29 08:03:51;;;;;;;19.17;11.75;;;;;;;9.81;78.34;101377.94;5049871;28;20040;-44
2023/03/29 08:06:17;;;;;;;20.63;12.10;;;;;;;9.84;78.10;101387.59;5050220;28;20025;-43
2023/03/29 08:08:42;;;;;;;18.55;11.68;;;;;;;9.87;78.44;101380.66;5050028;28;20032;-44
2023/03/29 08:11:09;;;;;;;21.13;11.93;;;;;;;9.86;79.01;101376.25;5049958;28;20028;-43
2023/03/29 08:13:34;;;;;;;21.92;13.93;;;;;;;9.88;79.17;101376.78;5048623;28;20029;-45
2023/03/29 08:15:59;;;;;;;18.52;12.10;;;;;;;9.92;80.39;101369.59;5049874;28;20037;-45
2023/03/29 08:18:25;;;;;;;19.35;12.00;;;;;;;10.02;80.03;101377.75;5048607;28;20036;-44
2023/03/29 08:20:51;;;;;;;18.88;11.75;;;;;;;10.09;80.52;101371.91;5049548;28;20025;-43
2023/03/29 08:23:16;;;;;;;19.58;12.38;;;;;;;10.10;82.06;101370.78;5049555;28;20159;-45
2023/03/29 08:25:41;;;;;;;20.55;12.88;;;;;;;10.09;82.16;101372.75;5049687;28;20064;-44
2023/03/29 08:28:07;;;;;;;20.55;12.63;;;;;;;10.06;82.93;101375.28;5049763;28;20037;-44
2023/03/29 08:30:32;;;;;;;20.63;13.23;;;;;;;10.05;83.14;101379.97;5049633;28;20028;-44
2023/03/29 08:32:58;;;;;;;21.55;13.48;;;;;;;10.02;84.26;101374.19;5062423;28;20043;-44
2023/03/29 08:35:23;;;;;;;21.08;13.02;;;;;;;10.03;84.84;101364.78;5072655;28;20082;-44
2023/03/29 08:37:48;;;;;;;20.40;13.18;;;;;;;10.07;84.66;101369.44;5072811;28;20030;-44
2023/03/29 08:40:28;;;;;;;19.15;12.40;;;;;;;10.11;84.17;101361.38;5072868;28;20024;-44
2023/03/29 08:43:02;;;;;;;19.27;12.45;;;;;;;10.15;84.23;101357.75;5072099;28;20031;-44
2023/03/29 08:45:45;;;;;;;19.95;12.70;;;;;;;10.26;84.16;101349.38;5073258;28;20114;-44
2023/03/29 08:48:21;;;;;;;18.85;12.60;;;;;;;10.29;84.10;101337.72;5073167;28;20042;-47
2023/03/29 08:50:51;;;;;;;20.10;12.40;;;;;;;10.43;84.62;101358.06;5072815;28;20037;-47
2023/03/29 08:53:30;;;;;;;20.20;12.60;;;;;;;10.51;84.23;101358.53;5072782;28;20039;-46
2023/03/29 08:55:58;;;;;;;20.67;12.95;;;;;;;10.52;84.92;101357.41;5072822;28;20493;-44
2023/03/29 08:58:27;;;;;;;19.42;12.65;;;;;;;10.52;85.22;101351.88;5072818;28;20127;-46
2023/03/29 09:00:56;;;;;;;19.67;13.18;;;;;;;10.53;84.96;101348.81;5072964;28;20465;-45
2023/03/29 09:03:25;;;;;;;20.65;13.23;;;;;;;10.66;85.07;101340.94;5072942;28;20074;-44
2023/03/29 09:05:56;;;;;;;21.17;13.30;;;;;;;10.80;85.19;101354.88;5072700;28;20562;-45
2023/03/29 09:08:22;;;;;;;20.73;13.32;;;;;;;10.86;85.32;101345.44;5072816;28;20137;-45
2023/03/29 09:11:00;;;;;;;20.45;13.18;;;;;;;10.99;83.93;101357.72;5072791;28;20504;-47
2023/03/29 09:13:42;;;;;;;21.50;13.27;;;;;;;11.03;84.08;101344.91;5071450;28;20035;-44
2023/03/29 09:16:32;;;;;;;19.48;12.75;;;;;;;11.17;83.11;101348.63;5072439;28;20055;-44
2023/03/29 09:19:15;;;;;;;20.52;12.90;;;;;;;11.26;84.20;101337.69;5072598;28;20489;-43
2023/03/29 09:22:00;;;;;;;20.85;13.23;;;;;;;11.35;84.26;101335.06;5054374;28;20033;-48
2023/03/29 09:24:41;;;;;;;22.25;13.00;;;;;;;11.46;83.13;101347.66;5054428;28;20036;-43
2023/03/29 09:27:19;;;;;;;21.42;13.77;;;;;;;11.54;84.57;101360.81;5072582;28;20106;-45
2023/03/29 09:29:59;;;;;;;22.83;13.32;;;;;;;11.57;82.21;101361.34;5072544;28;20029;-44
2023/03/29 09:32:32;;;;;;;22.73;13.63;;;;;;;11.53;82.52;101352.78;5072468;28;20033;-44
2023/03/29 09:35:13;;;;;;;20.63;13.50;;;;;;;11.53;82.67;101350.03;5072261;28;20036;-45
2023/03/29 09:37:40;;;;;;;21.10;13.40;;;;;;;11.47;83.00;101349.31;5072428;28;20086;-44
2023/03/29 09:40:13;;;;;;;20.65;13.35;;;;;;;11.47;82.43;101343.75;5072479;28;20056;-46
2023/03/29 09:42:39;;;;;;;21.27;13.47;;;;;;;11.55;81.92;101353.31;5072207;28;20032;-45
2023/03/29 09:45:08;;;;;;;22.50;13.50;;;;;;;11.55;81.28;101359.72;5071757;28;20060;-44
2023/03/29 09:47:43;;;;;;;22.83;13.60;;;;;;;11.57;82.96;101353.03;5072061;28;20036;-47
2023/03/29 09:50:15;;;;;;;19.88;13.52;;;;;;;11.59;83.56;101343.28;5072208;28;20037;-47
2023/03/29 09:52:41;;;;;;;22.20;13.88;;;;;;;11.67;82.71;101355.63;5072069;28;20027;-46
2023/03/29 09:55:12;;;;;;;20.00;13.63;;;;;;;11.65;83.06;101364.25;5071735;28;20029;-48
2023/03/29 09:57:37;;;;;;;20.40;13.40;;;;;;;11.57;82.30;101359.41;5071794;28;20107;-47
2023/03/29 10:00:04;;;;;;;20.02;13.38;;;;;;;11.52;84.11;101349.22;5071726;28;20159;-46
2023/03/29 10:02:30;;;;;;;22.33;14.35;;;;;;;11.48;85.71;101361.19;5071852;28;20036;-46
2023/03/29 10:04:59;;;;;;;21.17;13.48;;;;;;;11.41;85.87;101363.53;5071736;28;20064;-43
2023/03/29 10:07:38;;;;;;;20.95;14.43;;;;;;;11.30;86.17;101360.91;5071399;28;20555;-46
2023/03/29 10:10:09;;;;;;;21.08;14.00;;;;;;;11.24;87.92;101351.84;5053475;28;20060;-46
2023/03/29 10:12:34;;;;;;;21.13;14.20;;;;;;;11.26;88.82;101361.78;5070347;28;20043;-43
2023/03/29 10:15:00;;;;;;;21.70;14.13;;;;;;;11.23;89.33;101357.69;5071265;28;20393;-44
2023/03/29 10:17:32;;;;;;;21.70;14.65;;;;;;;11.22;91.37;101362.38;5071504;28;20095;-44
2023/03/29 10:20:01;;;;;;;21.40;14.10;;;;;;;11.19;90.82;101349.13;5071284;28;20032;-45
2023/03/29 10:22:36;;;;;;;21.92;13.82;;;;;;;11.21;91.63;101343.31;5071079;28;20563;-45
2023/03/29 10:25:02;;;;;;;21.15;13.48;;;;;;;11.31;89.43;101350.63;5070830;28;20036;-45
2023/03/29 10:27:30;;;;;;;19.92;14.48;;;;;;;11.33;90.27;101343.69;5071482;28;20127;-45
2023/03/29 10:29:58;;;;;;;21.02;14.52;;;;;;;11.31;90.37;101353.41;5070975;28;20028;-47
2023/03/29 10:32:35;;;;;;;21.20;15.40;;;;;;;11.37;90.77;101347.50;5071058;28;20036;-47
2023/03/29 10:35:16;;;;;;;21.15;14.98;;;;;;;11.39;90.82;101338.88;5070731;28;20567;-45
2023/03/29 10:37:43;;;;;;;21.58;15.35;;;;;;;11.42;92.00;101337.47;5052935;28;20043;-45
2023/03/29 10:40:22;;;;;;;21.60;15.73;;;;;;;11.49;91.79;101337.91;5071188;28;20111;-47
2023/03/29 10:42:49;;;;;;;21.20;14.77;;;;;;;11.57;90.63;101331.69;5053789;28;20500;-48
2023/03/29 10:45:27;;;;;;;22.10;15.73;;;;;;;11.64;91.65;101340.44;5070922;28;20032;-44
2023/03/29 10:47:57;;;;;;;22.15;14.77;;;;;;;11.65;90.68;101341.28;5070954;28;20032;-46
2023/03/29 10:50:23;;;;;;;21.35;15.25;;;;;;;11.71;90.60;101332.56;5070614;28;20101;-45
2023/03/29 10:52:51;;;;;;;23.08;15.43;;;;;;;11.80;90.36;101324.38;5070717;28;20043;-45
2023/03/29 10:55:18;;;;;;;22.00;14.98;;;;;;;11.84;90.62;101310.75;5070077;28;20040;-47
2023/03/29 10:57:56;;;;;;;22.33;15.77;;;;;;;11.96;91.41;101321.34;5070954;28;20032;-45
2023/03/29 11:00:48;;;;;;;22.60;15.15;;;;;;;12.04;89.45;101306.00;5052620;28;20025;-45
2023/03/29 11:03:19;;;;;;;20.27;14.55;;;;;;;12.19;91.00;101302.94;5070757;28;20028;-46
2023/03/29 11:06:13;;;;;;;22.20;15.40;;;;;;;12.20;90.42;101270.47;5070716;28;20029;-44
2023/03/29 11:09:02;;;;;;;22.55;14.52;;;;;;;12.40;88.24;101283.97;5070599;28;20055;-46
2023/03/29 11:11:46;;;;;;;20.02;14.85;;;;;;;12.46;88.94;101281.91;5070489;28;20032;-46
2023/03/29 11:14:34;;;;;;;21.50;15.30;;;;;;;12.53;88.02;101284.25;5069381;28;20021;-44
2023/03/29 11:17:15;;;;;;;20.85;14.48;;;;;;;12.61;87.37;101281.59;5070333;28;20028;-45
2023/03/29 11:19:55;;;;;;;19.35;13.10;;;;;;;12.72;82.41;101289.69;5070713;28;20036;-47
2023/03/29 11:22:52;;;;;;;19.95;14.20;;;;;;;12.81;85.43;101282.28;5058797;28;20079;-46